Terminal Aerodrome Forecast
Issued by NWS Corpus Christi, TX

Home | Current Version | Previous Version | Text Only | Print | Product List | Glossary On
Versions: 1 2 3 4 5 6 7 8 9 10 11 12 13
674
FTUS44 KCRP 302326
TAFCRP
TAF
KCRP 302326Z 3100/3124 14015G25KT P6SM FEW040 SCT250
     FM310300 14015KT P6SM SCT250
     FM311100 17007KT P6SM SCT015 BKN250
     FM311500 17012G20KT P6SM SCT025
     FM312000 14020G28KT P6SM FEW035=

USA.gov is the U.S. government's official web portal to all federal, state and local government web resources and services.